Yuma, AZ

09:38 AM MST on Οκτώβριος 30, 2014 (GMT -0700)
Yuma Marine Corps Air Station | Change Station
CLOSE
Current Station
Airport
Location: Yuma MCAS,
Elevation: 213 ft
Nearby Weather Stations

Elev 213 ft 32.66 °N, 114.61 °W | Updated 33 minutes ago

Νεφελώδης
Νεφελώδης
76 ° F
Feels Like 76 ° F
N
9
Ανεμος Μεταβλητός Ανεμος from ΒΒΑ

Σήμερα
High -- | Low -- ° F
--% Chance of Precip.
Yesterday
High -- | Low -- ° F
Precip. -- in
6:54 AM 5:49 PM
Μηνίσκος, 45% visible
Ατμοσφαιρική Πίεση 29.96 in
Ορατότητα 10.0 Μίλια
Σύννεφα Νεφελώδης 25000 ft
Σημείο Δρόσου 35 ° F
Υγρασία 23%
Rainfall 0.00 in
Snow Depth Not available.
Υπεριώδης ακτινοβολία (UV) 1 out of 12
Pollen 5.70 out of 12
Air Quality Not available.
Flu Activity Not available.
METAR KNYL 301605Z COR 02008KT 10SM BKN250 24/02 A2997 RMK SLP146 T02440017

More Conditions Fewer Conditions

Ατμοσφαιρική Πίεση 29.96 in
Ορατότητα 10.0 Μίλια
Σύννεφα Νεφελώδης 25000 ft
Σημείο Δρόσου 35 ° F
Υγρασία 23%
Rainfall 0.00 in
Snow Depth Not available.
Υπεριώδης ακτινοβολία (UV) 1 out of 12
Pollen 5.70 out of 12
Air Quality Not available.
Flu Activity Not available.
METAR KNYL 301605Z COR 02008KT 10SM BKN250 24/02 A2997 RMK SLP146 T02440017

More Conditions Fewer Conditions

10-Day Weather Forecast

Almanac

Αστρονομία

Oct. 30, 2014 Rise Set
Actual Time
Civil Twilight
Nautical Twilight
Astronomical Twilight
Moon
Length Of Visible Light
Διάρκεια ημέρας
Tomorrow will be .
, % of the Moon is Illuminated

Today's Extremes

State Highs State Lows

Community

WunderPhotos

Upload Photos

1,766,399 photos uploaded!

WunderBlogs® & News

Nearby

Air Quality

  Air Quality AQ Index Pollutant
Not available.

Snow Depth

Station Depth Elevation

Earthquake Activity

City Distance Mag. Time & Date
Minimum magnitude displayed is 2.5.

Coastal Water Temperatures

Τοποθεσία Θερμοκρασία

Nearby Weather Stations